sensor_id;sensor_type;location;lat;lon;timestamp;temperature;humidity
12901;DHT22;6518;50.930;5.344;2022-09-09T00:00:55;18.20;87.60
12901;DHT22;6518;50.930;5.344;2022-09-09T00:03:26;18.10;87.80
12901;DHT22;6518;50.930;5.344;2022-09-09T00:05:59;18.20;88.20
12901;DHT22;6518;50.930;5.344;2022-09-09T00:08:40;18.20;87.90
12901;DHT22;6518;50.930;5.344;2022-09-09T00:11:12;18.20;87.50
12901;DHT22;6518;50.930;5.344;2022-09-09T00:13:46;18.10;87.30
12901;DHT22;6518;50.930;5.344;2022-09-09T00:16:17;18.10;87.40
12901;DHT22;6518;50.930;5.344;2022-09-09T00:18:55;18.10;88.00
12901;DHT22;6518;50.930;5.344;2022-09-09T00:21:26;18.10;87.90
12901;DHT22;6518;50.930;5.344;2022-09-09T00:24:04;18.00;88.10
12901;DHT22;6518;50.930;5.344;2022-09-09T00:26:38;18.00;88.20
12901;DHT22;6518;50.930;5.344;2022-09-09T00:29:17;17.90;88.70
12901;DHT22;6518;50.930;5.344;2022-09-09T00:31:45;17.90;89.70
12901;DHT22;6518;50.930;5.344;2022-09-09T00:34:15;17.90;89.60
12901;DHT22;6518;50.930;5.344;2022-09-09T00:36:45;17.90;89.10
12901;DHT22;6518;50.930;5.344;2022-09-09T00:39:22;17.90;89.30
12901;DHT22;6518;50.930;5.344;2022-09-09T00:42:00;17.80;90.10
12901;DHT22;6518;50.930;5.344;2022-09-09T00:44:37;17.80;90.40
12901;DHT22;6518;50.930;5.344;2022-09-09T00:47:12;17.80;90.40
12901;DHT22;6518;50.930;5.344;2022-09-09T00:49:51;17.80;90.30
12901;DHT22;6518;50.930;5.344;2022-09-09T00:52:29;17.80;90.50
12901;DHT22;6518;50.930;5.344;2022-09-09T00:55:05;17.70;90.60
12901;DHT22;6518;50.930;5.344;2022-09-09T00:57:34;17.70;90.90
12901;DHT22;6518;50.930;5.344;2022-09-09T01:00:17;17.70;90.90
12901;DHT22;6518;50.930;5.344;2022-09-09T01:02:58;17.60;90.90
12901;DHT22;6518;50.930;5.344;2022-09-09T01:05:34;17.60;91.20
12901;DHT22;6518;50.930;5.344;2022-09-09T01:08:06;17.60;91.30
12901;DHT22;6518;50.930;5.344;2022-09-09T01:10:41;17.60;91.20
12901;DHT22;6518;50.930;5.344;2022-09-09T01:13:15;17.60;91.50
12901;DHT22;6518;50.930;5.344;2022-09-09T01:15:44;17.60;91.70
12901;DHT22;6518;50.930;5.344;2022-09-09T01:18:15;17.60;91.70
12901;DHT22;6518;50.930;5.344;2022-09-09T01:20:47;17.60;91.90
12901;DHT22;6518;50.930;5.344;2022-09-09T01:23:41;17.60;91.70
12901;DHT22;6518;50.930;5.344;2022-09-09T01:26:26;17.60;92.00
12901;DHT22;6518;50.930;5.344;2022-09-09T01:28:55;17.70;92.10
12901;DHT22;6518;50.930;5.344;2022-09-09T01:31:26;17.70;92.00
12901;DHT22;6518;50.930;5.344;2022-09-09T01:33:53;17.70;92.30
12901;DHT22;6518;50.930;5.344;2022-09-09T01:36:29;17.70;92.20
12901;DHT22;6518;50.930;5.344;2022-09-09T01:38:59;17.70;92.40
12901;DHT22;6518;50.930;5.344;2022-09-09T01:41:27;17.70;92.20
12901;DHT22;6518;50.930;5.344;2022-09-09T01:43:55;17.70;92.10
12901;DHT22;6518;50.930;5.344;2022-09-09T01:46:22;17.60;92.30
12901;DHT22;6518;50.930;5.344;2022-09-09T01:48:50;17.60;92.50
12901;DHT22;6518;50.930;5.344;2022-09-09T01:51:17;17.60;92.50
12901;DHT22;6518;50.930;5.344;2022-09-09T01:53:45;17.60;92.70
12901;DHT22;6518;50.930;5.344;2022-09-09T01:56:21;17.60;92.80
12901;DHT22;6518;50.930;5.344;2022-09-09T01:59:02;17.60;93.00
12901;DHT22;6518;50.930;5.344;2022-09-09T02:01:38;17.60;93.10
12901;DHT22;6518;50.930;5.344;2022-09-09T02:04:17;17.60;93.30
12901;DHT22;6518;50.930;5.344;2022-09-09T02:06:46;17.50;93.40
12901;DHT22;6518;50.930;5.344;2022-09-09T02:09:19;17.50;93.60
12901;DHT22;6518;50.930;5.344;2022-09-09T02:11:50;17.50;93.60
12901;DHT22;6518;50.930;5.344;2022-09-09T02:14:25;17.60;93.80
12901;DHT22;6518;50.930;5.344;2022-09-09T02:16:57;17.60;94.00
12901;DHT22;6518;50.930;5.344;2022-09-09T02:19:28;17.60;94.00
12901;DHT22;6518;50.930;5.344;2022-09-09T02:21:59;17.60;94.10
12901;DHT22;6518;50.930;5.344;2022-09-09T02:24:28;17.60;94.20
12901;DHT22;6518;50.930;5.344;2022-09-09T02:26:56;17.70;94.30
12901;DHT22;6518;50.930;5.344;2022-09-09T02:29:27;17.70;94.20
12901;DHT22;6518;50.930;5.344;2022-09-09T02:31:59;17.70;94.10
12901;DHT22;6518;50.930;5.344;2022-09-09T02:34:29;17.70;94.10
12901;DHT22;6518;50.930;5.344;2022-09-09T02:36:57;17.70;94.10
12901;DHT22;6518;50.930;5.344;2022-09-09T02:39:26;17.60;94.00
12901;DHT22;6518;50.930;5.344;2022-09-09T02:41:52;17.60;94.00
12901;DHT22;6518;50.930;5.344;2022-09-09T02:44:19;17.60;94.20
12901;DHT22;6518;50.930;5.344;2022-09-09T02:47:10;17.60;94.10
12901;DHT22;6518;50.930;5.344;2022-09-09T02:49:45;17.50;94.00
12901;DHT22;6518;50.930;5.344;2022-09-09T02:52:19;17.60;94.00
12901;DHT22;6518;50.930;5.344;2022-09-09T02:54:51;17.50;93.50
12901;DHT22;6518;50.930;5.344;2022-09-09T02:57:27;17.50;93.50
12901;DHT22;6518;50.930;5.344;2022-09-09T02:59:57;17.50;93.60
12901;DHT22;6518;50.930;5.344;2022-09-09T03:02:26;17.40;93.80
12901;DHT22;6518;50.930;5.344;2022-09-09T03:04:53;17.40;93.90
12901;DHT22;6518;50.930;5.344;2022-09-09T03:07:20;17.40;94.00
12901;DHT22;6518;50.930;5.344;2022-09-09T03:09:47;17.40;94.20
12901;DHT22;6518;50.930;5.344;2022-09-09T03:12:14;17.40;94.70
12901;DHT22;6518;50.930;5.344;2022-09-09T03:14:41;17.40;94.80
12901;DHT22;6518;50.930;5.344;2022-09-09T03:17:10;17.40;94.90
12901;DHT22;6518;50.930;5.344;2022-09-09T03:19:39;17.40;95.00
12901;DHT22;6518;50.930;5.344;2022-09-09T03:22:06;17.40;95.00
12901;DHT22;6518;50.930;5.344;2022-09-09T03:24:33;17.40;94.90
12901;DHT22;6518;50.930;5.344;2022-09-09T03:27:00;17.40;94.80
12901;DHT22;6518;50.930;5.344;2022-09-09T03:29:26;17.40;95.10
12901;DHT22;6518;50.930;5.344;2022-09-09T03:31:53;17.50;94.90
12901;DHT22;6518;50.930;5.344;2022-09-09T03:34:20;17.50;95.00
12901;DHT22;6518;50.930;5.344;2022-09-09T03:36:48;17.50;94.90
12901;DHT22;6518;50.930;5.344;2022-09-09T03:39:15;17.50;94.90
12901;DHT22;6518;50.930;5.344;2022-09-09T03:41:42;17.50;95.10
12901;DHT22;6518;50.930;5.344;2022-09-09T03:44:10;17.60;94.80
12901;DHT22;6518;50.930;5.344;2022-09-09T03:46:37;17.50;94.40
12901;DHT22;6518;50.930;5.344;2022-09-09T03:49:04;17.60;94.80
12901;DHT22;6518;50.930;5.344;2022-09-09T03:51:31;17.60;94.90
12901;DHT22;6518;50.930;5.344;2022-09-09T03:54:03;17.50;94.60
12901;DHT22;6518;50.930;5.344;2022-09-09T03:56:34;17.60;94.30
12901;DHT22;6518;50.930;5.344;2022-09-09T03:59:00;17.50;94.30
12901;DHT22;6518;50.930;5.344;2022-09-09T04:01:28;17.50;94.30
12901;DHT22;6518;50.930;5.344;2022-09-09T04:03:55;17.50;94.30
12901;DHT22;6518;50.930;5.344;2022-09-09T04:06:24;17.50;94.20
12901;DHT22;6518;50.930;5.344;2022-09-09T04:08:51;17.50;94.10
12901;DHT22;6518;50.930;5.344;2022-09-09T04:11:20;17.50;94.20
12901;DHT22;6518;50.930;5.344;2022-09-09T04:13:47;17.50;94.70
12901;DHT22;6518;50.930;5.344;2022-09-09T04:16:15;17.40;94.70
12901;DHT22;6518;50.930;5.344;2022-09-09T04:18:41;17.40;94.50
12901;DHT22;6518;50.930;5.344;2022-09-09T04:21:09;17.40;94.20
12901;DHT22;6518;50.930;5.344;2022-09-09T04:23:38;17.40;94.40
12901;DHT22;6518;50.930;5.344;2022-09-09T04:26:05;17.40;94.40
12901;DHT22;6518;50.930;5.344;2022-09-09T04:28:35;17.40;94.80
12901;DHT22;6518;50.930;5.344;2022-09-09T04:31:07;17.40;94.90
12901;DHT22;6518;50.930;5.344;2022-09-09T04:33:34;17.40;94.90
12901;DHT22;6518;50.930;5.344;2022-09-09T04:36:02;17.40;94.50
12901;DHT22;6518;50.930;5.344;2022-09-09T04:38:29;17.30;94.50
12901;DHT22;6518;50.930;5.344;2022-09-09T04:40:56;17.30;94.40
12901;DHT22;6518;50.930;5.344;2022-09-09T04:43:23;17.30;94.20
12901;DHT22;6518;50.930;5.344;2022-09-09T04:45:54;17.20;94.20
12901;DHT22;6518;50.930;5.344;2022-09-09T04:48:21;17.20;94.10
12901;DHT22;6518;50.930;5.344;2022-09-09T04:50:55;17.20;94.20
12901;DHT22;6518;50.930;5.344;2022-09-09T04:53:23;17.20;94.60
12901;DHT22;6518;50.930;5.344;2022-09-09T04:55:50;17.10;94.50
12901;DHT22;6518;50.930;5.344;2022-09-09T04:58:18;17.10;94.90
12901;DHT22;6518;50.930;5.344;2022-09-09T05:00:47;17.10;94.80
12901;DHT22;6518;50.930;5.344;2022-09-09T05:03:15;17.10;94.80
12901;DHT22;6518;50.930;5.344;2022-09-09T05:05:42;17.10;94.90
12901;DHT22;6518;50.930;5.344;2022-09-09T05:08:10;17.10;95.10
12901;DHT22;6518;50.930;5.344;2022-09-09T05:10:38;17.10;95.10
12901;DHT22;6518;50.930;5.344;2022-09-09T05:13:07;17.10;95.20
12901;DHT22;6518;50.930;5.344;2022-09-09T05:15:34;17.10;95.40
12901;DHT22;6518;50.930;5.344;2022-09-09T05:18:02;17.10;95.40
12901;DHT22;6518;50.930;5.344;2022-09-09T05:20:30;17.10;95.40
12901;DHT22;6518;50.930;5.344;2022-09-09T05:22:57;17.10;95.20
12901;DHT22;6518;50.930;5.344;2022-09-09T05:25:24;17.10;95.20
12901;DHT22;6518;50.930;5.344;2022-09-09T05:27:52;17.10;95.20
12901;DHT22;6518;50.930;5.344;2022-09-09T05:30:20;17.10;95.00
12901;DHT22;6518;50.930;5.344;2022-09-09T05:32:47;17.10;95.20
12901;DHT22;6518;50.930;5.344;2022-09-09T05:35:14;17.10;95.30
12901;DHT22;6518;50.930;5.344;2022-09-09T05:37:43;17.10;95.10
12901;DHT22;6518;50.930;5.344;2022-09-09T05:40:11;17.10;95.00
12901;DHT22;6518;50.930;5.344;2022-09-09T05:42:38;17.10;94.90
12901;DHT22;6518;50.930;5.344;2022-09-09T05:45:06;17.20;95.00
12901;DHT22;6518;50.930;5.344;2022-09-09T05:47:34;17.10;94.80
12901;DHT22;6518;50.930;5.344;2022-09-09T05:50:01;17.20;94.70
12901;DHT22;6518;50.930;5.344;2022-09-09T05:52:27;17.20;94.80
12901;DHT22;6518;50.930;5.344;2022-09-09T05:54:56;17.30;94.90
12901;DHT22;6518;50.930;5.344;2022-09-09T05:57:24;17.30;94.70
12901;DHT22;6518;50.930;5.344;2022-09-09T05:59:51;17.30;94.50
12901;DHT22;6518;50.930;5.344;2022-09-09T06:02:19;17.40;94.30
12901;DHT22;6518;50.930;5.344;2022-09-09T06:04:45;17.40;93.90
12901;DHT22;6518;50.930;5.344;2022-09-09T06:07:12;17.40;93.80
12901;DHT22;6518;50.930;5.344;2022-09-09T06:09:40;17.50;93.40
12901;DHT22;6518;50.930;5.344;2022-09-09T06:12:08;17.50;93.30
12901;DHT22;6518;50.930;5.344;2022-09-09T06:14:35;17.50;93.10
12901;DHT22;6518;50.930;5.344;2022-09-09T06:17:03;17.50;93.10
12901;DHT22;6518;50.930;5.344;2022-09-09T06:19:30;17.60;93.10
12901;DHT22;6518;50.930;5.344;2022-09-09T06:21:57;17.60;93.20
12901;DHT22;6518;50.930;5.344;2022-09-09T06:24:25;17.60;93.00
12901;DHT22;6518;50.930;5.344;2022-09-09T06:26:52;17.70;93.10
12901;DHT22;6518;50.930;5.344;2022-09-09T06:29:20;17.70;92.40
12901;DHT22;6518;50.930;5.344;2022-09-09T06:31:47;17.80;92.10
12901;DHT22;6518;50.930;5.344;2022-09-09T06:34:14;17.80;92.10
12901;DHT22;6518;50.930;5.344;2022-09-09T06:36:41;17.80;92.30
12901;DHT22;6518;50.930;5.344;2022-09-09T06:39:08;17.90;91.90
12901;DHT22;6518;50.930;5.344;2022-09-09T06:41:36;18.00;91.80
12901;DHT22;6518;50.930;5.344;2022-09-09T06:44:04;18.00;91.30
12901;DHT22;6518;50.930;5.344;2022-09-09T06:46:32;18.10;91.20
12901;DHT22;6518;50.930;5.344;2022-09-09T06:49:01;18.10;91.10
12901;DHT22;6518;50.930;5.344;2022-09-09T06:51:29;18.20;90.70
12901;DHT22;6518;50.930;5.344;2022-09-09T06:53:58;18.30;90.40
12901;DHT22;6518;50.930;5.344;2022-09-09T06:56:26;18.40;90.70
12901;DHT22;6518;50.930;5.344;2022-09-09T06:58:55;18.50;90.40
12901;DHT22;6518;50.930;5.344;2022-09-09T07:01:24;18.50;90.00
12901;DHT22;6518;50.930;5.344;2022-09-09T07:03:54;18.50;87.90
12901;DHT22;6518;50.930;5.344;2022-09-09T07:06:22;18.50;87.70
12901;DHT22;6518;50.930;5.344;2022-09-09T07:08:51;18.50;86.90
12901;DHT22;6518;50.930;5.344;2022-09-09T07:11:19;18.50;86.50
12901;DHT22;6518;50.930;5.344;2022-09-09T07:13:47;18.50;87.20
12901;DHT22;6518;50.930;5.344;2022-09-09T07:16:15;18.50;86.30
12901;DHT22;6518;50.930;5.344;2022-09-09T07:18:42;18.50;85.80
12901;DHT22;6518;50.930;5.344;2022-09-09T07:21:12;18.50;86.30
12901;DHT22;6518;50.930;5.344;2022-09-09T07:23:40;18.50;85.10
12901;DHT22;6518;50.930;5.344;2022-09-09T07:26:08;18.50;84.80
12901;DHT22;6518;50.930;5.344;2022-09-09T07:28:36;18.50;84.10
12901;DHT22;6518;50.930;5.344;2022-09-09T07:31:04;18.60;83.50
12901;DHT22;6518;50.930;5.344;2022-09-09T07:33:33;18.70;83.60
12901;DHT22;6518;50.930;5.344;2022-09-09T07:36:05;18.70;83.10
12901;DHT22;6518;50.930;5.344;2022-09-09T07:38:37;18.80;82.50
12901;DHT22;6518;50.930;5.344;2022-09-09T07:41:06;18.90;82.30
12901;DHT22;6518;50.930;5.344;2022-09-09T07:43:37;18.90;80.80
12901;DHT22;6518;50.930;5.344;2022-09-09T07:46:05;19.00;80.40
12901;DHT22;6518;50.930;5.344;2022-09-09T07:48:32;19.00;79.50
12901;DHT22;6518;50.930;5.344;2022-09-09T07:51:05;19.10;79.30
12901;DHT22;6518;50.930;5.344;2022-09-09T07:53:34;19.10;79.30
12901;DHT22;6518;50.930;5.344;2022-09-09T07:56:06;19.20;79.40
12901;DHT22;6518;50.930;5.344;2022-09-09T07:58:33;19.20;78.90
12901;DHT22;6518;50.930;5.344;2022-09-09T08:01:00;19.20;77.90
12901;DHT22;6518;50.930;5.344;2022-09-09T08:03:27;19.10;77.40
12901;DHT22;6518;50.930;5.344;2022-09-09T08:06:00;19.10;77.00
12901;DHT22;6518;50.930;5.344;2022-09-09T08:08:28;19.00;77.00
12901;DHT22;6518;50.930;5.344;2022-09-09T08:11:06;18.90;77.00
12901;DHT22;6518;50.930;5.344;2022-09-09T08:13:34;18.90;76.90
12901;DHT22;6518;50.930;5.344;2022-09-09T08:16:06;18.80;76.90
12901;DHT22;6518;50.930;5.344;2022-09-09T08:18:34;18.80;77.10
12901;DHT22;6518;50.930;5.344;2022-09-09T08:21:08;18.80;77.20
12901;DHT22;6518;50.930;5.344;2022-09-09T08:23:37;18.80;76.90
12901;DHT22;6518;50.930;5.344;2022-09-09T08:26:11;18.70;76.80
12901;DHT22;6518;50.930;5.344;2022-09-09T08:28:39;18.70;76.90
12901;DHT22;6518;50.930;5.344;2022-09-09T08:31:08;18.70;77.00
12901;DHT22;6518;50.930;5.344;2022-09-09T08:33:35;18.70;77.20
12901;DHT22;6518;50.930;5.344;2022-09-09T08:36:05;18.70;77.10
12901;DHT22;6518;50.930;5.344;2022-09-09T08:38:32;18.70;77.10
12901;DHT22;6518;50.930;5.344;2022-09-09T08:41:11;18.70;77.10
12901;DHT22;6518;50.930;5.344;2022-09-09T08:43:43;18.70;76.70
12901;DHT22;6518;50.930;5.344;2022-09-09T08:46:17;18.60;76.80
12901;DHT22;6518;50.930;5.344;2022-09-09T08:48:53;18.60;76.80
12901;DHT22;6518;50.930;5.344;2022-09-09T08:51:27;18.60;76.90
12901;DHT22;6518;50.930;5.344;2022-09-09T08:53:55;18.60;76.70
12901;DHT22;6518;50.930;5.344;2022-09-09T08:56:26;18.60;76.80
12901;DHT22;6518;50.930;5.344;2022-09-09T08:58:55;18.60;77.10
12901;DHT22;6518;50.930;5.344;2022-09-09T09:04:33;18.60;77.60
12901;DHT22;6518;50.930;5.344;2022-09-09T09:07:13;18.50;77.30
12901;DHT22;6518;50.930;5.344;2022-09-09T09:09:50;18.50;77.50
12901;DHT22;6518;50.930;5.344;2022-09-09T09:12:23;18.60;77.80
12901;DHT22;6518;50.930;5.344;2022-09-09T09:14:52;18.60;77.70
12901;DHT22;6518;50.930;5.344;2022-09-09T09:17:24;18.60;77.80
12901;DHT22;6518;50.930;5.344;2022-09-09T09:19:53;18.60;77.70
12901;DHT22;6518;50.930;5.344;2022-09-09T09:22:21;18.60;77.50
12901;DHT22;6518;50.930;5.344;2022-09-09T09:24:52;18.60;77.40
12901;DHT22;6518;50.930;5.344;2022-09-09T09:27:31;18.60;77.30
12901;DHT22;6518;50.930;5.344;2022-09-09T09:30:00;18.70;77.20
12901;DHT22;6518;50.930;5.344;2022-09-09T09:32:33;18.80;77.10
12901;DHT22;6518;50.930;5.344;2022-09-09T09:35:02;18.90;77.10
12901;DHT22;6518;50.930;5.344;2022-09-09T09:37:34;19.00;77.00
12901;DHT22;6518;50.930;5.344;2022-09-09T09:40:09;19.10;76.70
12901;DHT22;6518;50.930;5.344;2022-09-09T09:42:37;19.10;76.30
12901;DHT22;6518;50.930;5.344;2022-09-09T09:45:13;19.30;75.90
12901;DHT22;6518;50.930;5.344;2022-09-09T09:47:42;19.30;75.60
12901;DHT22;6518;50.930;5.344;2022-09-09T09:50:17;19.30;75.30
12901;DHT22;6518;50.930;5.344;2022-09-09T09:52:53;19.40;75.30
12901;DHT22;6518;50.930;5.344;2022-09-09T09:55:21;19.40;75.10
12901;DHT22;6518;50.930;5.344;2022-09-09T09:57:51;19.50;74.90
12901;DHT22;6518;50.930;5.344;2022-09-09T10:00:20;19.40;74.70
12901;DHT22;6518;50.930;5.344;2022-09-09T10:02:48;19.40;74.90
12901;DHT22;6518;50.930;5.344;2022-09-09T10:05:19;19.40;74.60
12901;DHT22;6518;50.930;5.344;2022-09-09T10:07:47;19.30;74.50
12901;DHT22;6518;50.930;5.344;2022-09-09T10:10:44;19.20;74.60
12901;DHT22;6518;50.930;5.344;2022-09-09T10:13:18;19.10;74.70
12901;DHT22;6518;50.930;5.344;2022-09-09T10:15:54;19.10;74.70
12901;DHT22;6518;50.930;5.344;2022-09-09T10:18:41;19.10;75.00
12901;DHT22;6518;50.930;5.344;2022-09-09T10:21:25;19.10;75.30
12901;DHT22;6518;50.930;5.344;2022-09-09T10:24:07;19.10;75.70
12901;DHT22;6518;50.930;5.344;2022-09-09T10:26:44;19.10;76.10
12901;DHT22;6518;50.930;5.344;2022-09-09T10:29:39;19.00;76.30
12901;DHT22;6518;50.930;5.344;2022-09-09T10:32:33;18.90;77.50
12901;DHT22;6518;50.930;5.344;2022-09-09T10:35:09;18.90;78.10
12901;DHT22;6518;50.930;5.344;2022-09-09T10:37:45;18.80;78.90
12901;DHT22;6518;50.930;5.344;2022-09-09T10:40:38;18.80;79.80
12901;DHT22;6518;50.930;5.344;2022-09-09T10:43:17;18.80;80.30
12901;DHT22;6518;50.930;5.344;2022-09-09T10:45:55;18.70;81.40
12901;DHT22;6518;50.930;5.344;2022-09-09T10:48:46;18.60;82.90
12901;DHT22;6518;50.930;5.344;2022-09-09T10:51:23;18.60;84.50
12901;DHT22;6518;50.930;5.344;2022-09-09T10:54:11;18.70;86.00
12901;DHT22;6518;50.930;5.344;2022-09-09T10:56:41;18.90;87.90
12901;DHT22;6518;50.930;5.344;2022-09-09T10:59:13;19.00;87.70
12901;DHT22;6518;50.930;5.344;2022-09-09T11:01:49;19.10;86.80
12901;DHT22;6518;50.930;5.344;2022-09-09T11:04:23;19.20;86.90
12901;DHT22;6518;50.930;5.344;2022-09-09T11:06:54;19.30;87.10
12901;DHT22;6518;50.930;5.344;2022-09-09T11:09:24;19.40;88.00
12901;DHT22;6518;50.930;5.344;2022-09-09T11:11:53;19.40;87.90
12901;DHT22;6518;50.930;5.344;2022-09-09T11:14:26;19.50;88.30
12901;DHT22;6518;50.930;5.344;2022-09-09T11:17:00;19.40;88.30
12901;DHT22;6518;50.930;5.344;2022-09-09T11:19:32;19.40;88.30
12901;DHT22;6518;50.930;5.344;2022-09-09T11:22:02;19.50;88.30
12901;DHT22;6518;50.930;5.344;2022-09-09T11:24:35;19.40;88.40
12901;DHT22;6518;50.930;5.344;2022-09-09T11:27:07;19.50;90.00
12901;DHT22;6518;50.930;5.344;2022-09-09T11:29:53;19.60;90.00
12901;DHT22;6518;50.930;5.344;2022-09-09T11:35:46;20.00;88.60
12901;DHT22;6518;50.930;5.344;2022-09-09T11:38:19;20.10;87.10
12901;DHT22;6518;50.930;5.344;2022-09-09T11:40:55;20.20;86.50
12901;DHT22;6518;50.930;5.344;2022-09-09T11:43:27;20.20;86.20
12901;DHT22;6518;50.930;5.344;2022-09-09T11:45:56;20.30;86.40
12901;DHT22;6518;50.930;5.344;2022-09-09T11:48:30;20.30;85.10
12901;DHT22;6518;50.930;5.344;2022-09-09T11:51:01;20.30;84.20
12901;DHT22;6518;50.930;5.344;2022-09-09T11:53:31;20.30;82.60
12901;DHT22;6518;50.930;5.344;2022-09-09T11:56:26;20.20;81.40
12901;DHT22;6518;50.930;5.344;2022-09-09T11:58:56;20.10;81.00
12901;DHT22;6518;50.930;5.344;2022-09-09T12:01:40;20.00;81.70
12901;DHT22;6518;50.930;5.344;2022-09-09T12:07:03;19.90;81.70
12901;DHT22;6518;50.930;5.344;2022-09-09T12:09:46;19.80;81.80
12901;DHT22;6518;50.930;5.344;2022-09-09T12:12:26;19.80;81.50
12901;DHT22;6518;50.930;5.344;2022-09-09T12:17:43;19.80;81.90
12901;DHT22;6518;50.930;5.344;2022-09-09T12:20:13;19.80;81.70
12901;DHT22;6518;50.930;5.344;2022-09-09T12:22:52;19.80;81.50
12901;DHT22;6518;50.930;5.344;2022-09-09T12:25:29;19.70;81.70
12901;DHT22;6518;50.930;5.344;2022-09-09T12:28:04;19.70;81.50
12901;DHT22;6518;50.930;5.344;2022-09-09T12:30:39;19.70;81.90
12901;DHT22;6518;50.930;5.344;2022-09-09T12:33:10;19.70;82.60
12901;DHT22;6518;50.930;5.344;2022-09-09T12:35:39;19.80;82.70
12901;DHT22;6518;50.930;5.344;2022-09-09T12:38:13;19.80;83.30
12901;DHT22;6518;50.930;5.344;2022-09-09T12:40:41;19.90;83.70
12901;DHT22;6518;50.930;5.344;2022-09-09T12:43:18;20.00;83.90
12901;DHT22;6518;50.930;5.344;2022-09-09T12:45:47;20.10;84.10
12901;DHT22;6518;50.930;5.344;2022-09-09T12:48:18;20.20;83.70
12901;DHT22;6518;50.930;5.344;2022-09-09T12:50:48;20.30;83.50
12901;DHT22;6518;50.930;5.344;2022-09-09T12:53:22;20.30;84.10
12901;DHT22;6518;50.930;5.344;2022-09-09T12:55:54;20.40;84.00
12901;DHT22;6518;50.930;5.344;2022-09-09T12:58:22;20.50;84.20
12901;DHT22;6518;50.930;5.344;2022-09-09T13:00:52;20.60;83.90
12901;DHT22;6518;50.930;5.344;2022-09-09T13:03:22;20.70;82.80
12901;DHT22;6518;50.930;5.344;2022-09-09T13:05:49;20.80;81.90
12901;DHT22;6518;50.930;5.344;2022-09-09T13:08:18;20.80;81.60
12901;DHT22;6518;50.930;5.344;2022-09-09T13:10:48;20.90;80.10
12901;DHT22;6518;50.930;5.344;2022-09-09T13:13:22;21.00;79.60
12901;DHT22;6518;50.930;5.344;2022-09-09T13:15:52;21.00;79.80
12901;DHT22;6518;50.930;5.344;2022-09-09T13:18:22;21.10;79.90
12901;DHT22;6518;50.930;5.344;2022-09-09T13:20:50;21.00;78.00
12901;DHT22;6518;50.930;5.344;2022-09-09T13:23:20;21.00;77.40
12901;DHT22;6518;50.930;5.344;2022-09-09T13:25:55;20.90;76.20
12901;DHT22;6518;50.930;5.344;2022-09-09T13:28:24;20.90;76.50
12901;DHT22;6518;50.930;5.344;2022-09-09T13:30:59;20.90;76.60
12901;DHT22;6518;50.930;5.344;2022-09-09T13:33:31;20.90;75.90
12901;DHT22;6518;50.930;5.344;2022-09-09T13:36:00;20.90;75.90
12901;DHT22;6518;50.930;5.344;2022-09-09T13:38:32;20.90;76.20
12901;DHT22;6518;50.930;5.344;2022-09-09T13:41:01;20.90;75.60
12901;DHT22;6518;50.930;5.344;2022-09-09T13:43:31;20.90;75.60
12901;DHT22;6518;50.930;5.344;2022-09-09T13:46:00;20.90;75.20
12901;DHT22;6518;50.930;5.344;2022-09-09T13:48:27;21.00;75.10
12901;DHT22;6518;50.930;5.344;2022-09-09T13:50:57;21.00;75.10
12901;DHT22;6518;50.930;5.344;2022-09-09T13:53:24;21.10;74.60
12901;DHT22;6518;50.930;5.344;2022-09-09T13:55:53;21.10;74.50
12901;DHT22;6518;50.930;5.344;2022-09-09T13:58:20;21.30;73.70
12901;DHT22;6518;50.930;5.344;2022-09-09T14:00:48;21.20;73.20
12901;DHT22;6518;50.930;5.344;2022-09-09T14:03:16;21.20;72.90
12901;DHT22;6518;50.930;5.344;2022-09-09T14:05:44;21.20;72.60
12901;DHT22;6518;50.930;5.344;2022-09-09T14:08:18;21.30;72.50
12901;DHT22;6518;50.930;5.344;2022-09-09T14:10:46;21.40;71.90
12901;DHT22;6518;50.930;5.344;2022-09-09T14:13:15;21.40;71.40
12901;DHT22;6518;50.930;5.344;2022-09-09T14:15:42;21.30;71.80
12901;DHT22;6518;50.930;5.344;2022-09-09T14:18:11;21.30;71.60
12901;DHT22;6518;50.930;5.344;2022-09-09T14:20:39;21.30;70.90
12901;DHT22;6518;50.930;5.344;2022-09-09T14:23:07;21.30;70.80
12901;DHT22;6518;50.930;5.344;2022-09-09T14:25:36;21.30;70.50
12901;DHT22;6518;50.930;5.344;2022-09-09T14:28:05;21.30;70.30
12901;DHT22;6518;50.930;5.344;2022-09-09T14:30:36;21.30;70.40
12901;DHT22;6518;50.930;5.344;2022-09-09T14:33:03;21.20;70.10
12901;DHT22;6518;50.930;5.344;2022-09-09T14:35:30;21.20;70.00
12901;DHT22;6518;50.930;5.344;2022-09-09T14:37:58;21.30;70.30
12901;DHT22;6518;50.930;5.344;2022-09-09T14:40:27;21.30;69.60
12901;DHT22;6518;50.930;5.344;2022-09-09T14:42:54;21.40;69.70
12901;DHT22;6518;50.930;5.344;2022-09-09T14:45:22;21.50;69.00
12901;DHT22;6518;50.930;5.344;2022-09-09T14:47:52;21.50;68.90
12901;DHT22;6518;50.930;5.344;2022-09-09T14:50:19;21.60;68.70
12901;DHT22;6518;50.930;5.344;2022-09-09T14:52:47;21.70;68.60
12901;DHT22;6518;50.930;5.344;2022-09-09T14:55:14;21.80;67.50
12901;DHT22;6518;50.930;5.344;2022-09-09T14:57:42;21.80;67.10
12901;DHT22;6518;50.930;5.344;2022-09-09T15:00:10;21.80;67.30
12901;DHT22;6518;50.930;5.344;2022-09-09T15:02:37;21.80;67.40
12901;DHT22;6518;50.930;5.344;2022-09-09T15:05:06;21.90;67.10
12901;DHT22;6518;50.930;5.344;2022-09-09T15:07:33;21.90;67.00
12901;DHT22;6518;50.930;5.344;2022-09-09T15:10:02;21.90;67.00
12901;DHT22;6518;50.930;5.344;2022-09-09T15:12:29;21.80;66.70
12901;DHT22;6518;50.930;5.344;2022-09-09T15:14:57;21.80;66.70
12901;DHT22;6518;50.930;5.344;2022-09-09T15:17:34;21.80;66.70
12901;DHT22;6518;50.930;5.344;2022-09-09T15:20:01;21.80;66.70
12901;DHT22;6518;50.930;5.344;2022-09-09T15:22:32;21.80;66.70
12901;DHT22;6518;50.930;5.344;2022-09-09T15:25:01;21.80;66.60
12901;DHT22;6518;50.930;5.344;2022-09-09T15:27:28;21.70;66.60
12901;DHT22;6518;50.930;5.344;2022-09-09T15:29:56;21.60;66.90
12901;DHT22;6518;50.930;5.344;2022-09-09T15:32:24;21.50;67.20
12901;DHT22;6518;50.930;5.344;2022-09-09T15:34:51;21.50;67.40
12901;DHT22;6518;50.930;5.344;2022-09-09T15:37:18;21.50;67.60
12901;DHT22;6518;50.930;5.344;2022-09-09T15:39:47;21.50;67.50
12901;DHT22;6518;50.930;5.344;2022-09-09T15:42:14;21.50;67.70
12901;DHT22;6518;50.930;5.344;2022-09-09T15:44:41;21.50;67.90
12901;DHT22;6518;50.930;5.344;2022-09-09T15:47:10;21.60;67.90
12901;DHT22;6518;50.930;5.344;2022-09-09T15:49:38;21.60;67.90
12901;DHT22;6518;50.930;5.344;2022-09-09T15:52:05;21.70;67.90
12901;DHT22;6518;50.930;5.344;2022-09-09T15:54:33;21.70;67.90
12901;DHT22;6518;50.930;5.344;2022-09-09T15:57:04;21.80;68.10
12901;DHT22;6518;50.930;5.344;2022-09-09T15:59:31;21.90;68.30
12901;DHT22;6518;50.930;5.344;2022-09-09T16:01:59;22.00;67.80
12901;DHT22;6518;50.930;5.344;2022-09-09T16:04:27;22.00;67.80
12901;DHT22;6518;50.930;5.344;2022-09-09T16:06:56;22.00;67.40
12901;DHT22;6518;50.930;5.344;2022-09-09T16:09:24;21.90;66.90
12901;DHT22;6518;50.930;5.344;2022-09-09T16:11:52;21.80;66.30
12901;DHT22;6518;50.930;5.344;2022-09-09T16:14:20;21.80;66.30
12901;DHT22;6518;50.930;5.344;2022-09-09T16:16:48;21.70;66.30
12901;DHT22;6518;50.930;5.344;2022-09-09T16:19:15;21.60;66.30